Time;durP1;ratioP1;P1;durP2;ratioP2;P2;SDS_P1;SDS_P2;PMS_P1;PMS_P2;Temp;Humidity;BMP_temperature;BMP_pressure;BME280_temperature;BME280_humidity;BME280_pressure;Samples;Min_cycle;Max_cycle;Signal;HPM_P1;HPM_P2
2023/10/09 00:03:03;;;;;;;12.82;4.78;;;;;;;;;;4956700;28;20050;-90
2023/10/09 00:08:16;;;;;;;14.18;4.82;;;;;;;;;;4977499;28;20053;-89
2023/10/09 00:10:49;;;;;;;12.00;4.45;;;;;;;;;;4994250;28;20228;-90
2023/10/09 00:13:15;;;;;;;11.55;4.68;;;;;;;;;;4994303;28;20105;-89
2023/10/09 00:15:43;;;;;;;12.00;5.15;;;;;;;;;;4994036;28;20051;-90
2023/10/09 00:18:12;;;;;;;14.35;5.07;;;;;;;;;;4977405;28;20050;-90
2023/10/09 00:20:42;;;;;;;12.15;5.05;;;;;;;;;;4961833;28;20053;-91
2023/10/09 00:23:15;;;;;;;16.45;6.00;;;;;;;;;;4992640;28;20126;-89
2023/10/09 00:28:50;;;;;;;16.52;6.10;;;;;;;;;;4956475;28;20130;-89
2023/10/09 00:31:26;;;;;;;13.73;6.03;;;;;;;;;;4977428;28;20078;-89
2023/10/09 00:33:54;;;;;;;15.60;6.43;;;;;;;;;;4993554;28;20051;-90
2023/10/09 00:36:27;;;;;;;18.48;7.18;;;;;;;;;;4977035;28;20051;-89
2023/10/09 00:38:54;;;;;;;16.95;6.97;;;;;;;;;;4962234;28;20082;-89
2023/10/09 00:41:22;;;;;;;19.20;7.97;;;;;;;;;;4961135;28;20182;-90
2023/10/09 00:43:59;;;;;;;15.80;6.85;;;;;;;;;;4993129;28;20054;-90
2023/10/09 00:46:26;;;;;;;21.95;7.72;;;;;;;;;;4992704;28;20088;-91
2023/10/09 00:48:54;;;;;;;20.08;9.02;;;;;;;;;;4941058;28;20066;-90
2023/10/09 00:51:22;;;;;;;19.15;8.27;;;;;;;;;;4979833;28;20061;-91
2023/10/09 00:53:50;;;;;;;24.58;8.98;;;;;;;;;;4957576;28;20043;-89
2023/10/09 00:57:07;;;;;;;21.42;10.00;;;;;;;;;;4945104;28;20137;-91
2023/10/09 01:01:40;;;;;;;20.05;9.68;;;;;;;;;;4941704;29;20047;-89
2023/10/09 01:04:26;;;;;;;25.75;10.15;;;;;;;;;;4957370;29;20109;-89
2023/10/09 01:09:53;;;;;;;24.02;9.85;;;;;;;;;;4943600;28;20050;-90
2023/10/09 01:12:20;;;;;;;24.70;10.40;;;;;;;;;;4945246;28;20057;-90
2023/10/09 01:14:54;;;;;;;30.23;11.10;;;;;;;;;;4944703;28;20126;-89
2023/10/09 01:17:35;;;;;;;22.15;9.95;;;;;;;;;;4957025;28;20547;-90
2023/10/09 01:20:04;;;;;;;27.00;10.18;;;;;;;;;;4957175;29;20055;-89
2023/10/09 01:22:30;;;;;;;27.13;11.57;;;;;;;;;;4956653;29;20051;-89
2023/10/09 01:24:56;;;;;;;;;;;;;;;;;;4957490;29;20156;-91
2023/10/09 01:27:25;;;;;;;25.42;10.93;;;;;;;;;;4960066;28;19938;-90
2023/10/09 01:29:51;;;;;;;24.08;10.50;;;;;;;;;;4945045;28;20051;-91
2023/10/09 01:32:19;;;;;;;;;;;;;;;;;;4960589;28;20046;-89
2023/10/09 01:34:48;;;;;;;23.75;10.25;;;;;;;;;;4960280;28;19922;-89
2023/10/09 01:37:18;;;;;;;26.73;10.50;;;;;;;;;;4959642;28;20643;-89
2023/10/09 01:39:48;;;;;;;25.85;11.23;;;;;;;;;;4960031;28;20265;-89
2023/10/09 01:44:58;;;;;;;26.58;11.35;;;;;;;;;;4960377;28;20086;-89
2023/10/09 01:47:25;;;;;;;27.55;12.05;;;;;;;;;;4975834;28;20101;-90
2023/10/09 01:49:57;;;;;;;29.40;12.38;;;;;;;;;;4976238;28;20057;-90
2023/10/09 01:52:23;;;;;;;33.17;13.05;;;;;;;;;;4959296;28;20703;-90
2023/10/09 01:54:51;;;;;;;26.35;12.05;;;;;;;;;;4975455;28;20042;-90
2023/10/09 01:57:22;;;;;;;27.98;12.63;;;;;;;;;;4959651;28;20046;-91
2023/10/09 01:59:49;;;;;;;32.15;13.23;;;;;;;;;;4980196;28;20194;-89
2023/10/09 02:02:25;;;;;;;29.15;14.00;;;;;;;;;;4978727;28;20049;-90
2023/10/09 02:05:40;;;;;;;30.65;13.60;;;;;;;;;;4995357;28;20057;-91
2023/10/09 02:07:51;;;;;;;30.95;13.15;;;;;;;;;;4978345;28;20046;-90
2023/10/09 02:10:33;;;;;;;30.35;13.20;;;;;;;;;;4978891;28;20042;-89
2023/10/09 02:13:11;;;;;;;32.03;13.38;;;;;;;;;;4978896;28;20046;-93
2023/10/09 02:21:00;;;;;;;33.33;13.75;;;;;;;;;;4978722;28;20050;-89
2023/10/09 02:26:06;;;;;;;39.60;14.60;;;;;;;;;;4974263;28;20160;-90
2023/10/09 02:28:34;;;;;;;31.20;13.70;;;;;;;;;;4977598;28;20407;-91
2023/10/09 02:31:13;;;;;;;30.60;13.70;;;;;;;;;;4962716;28;20078;-90
2023/10/09 02:33:39;;;;;;;33.58;14.30;;;;;;;;;;4978683;28;20484;-90
2023/10/09 02:36:09;;;;;;;39.80;15.02;;;;;;;;;;4978255;28;20052;-92
2023/10/09 02:38:42;;;;;;;32.85;13.93;;;;;;;;;;4962398;28;20056;-89
2023/10/09 02:43:46;;;;;;;38.95;15.35;;;;;;;;;;4980436;28;20089;-91
2023/10/09 02:46:28;;;;;;;36.60;14.98;;;;;;;;;;4973909;28;20058;-90
2023/10/09 02:49:03;;;;;;;35.08;14.68;;;;;;;;;;4976231;28;20380;-91
2023/10/09 02:51:34;;;;;;;40.78;15.98;;;;;;;;;;4987331;28;20120;-91
2023/10/09 02:54:27;;;;;;;37.38;16.10;;;;;;;;;;4994384;28;20057;-92
2023/10/09 02:57:07;;;;;;;35.75;15.63;;;;;;;;;;4993982;28;20050;-93
2023/10/09 02:59:44;;;;;;;35.45;16.67;;;;;;;;;;4994273;28;20054;-92
2023/10/09 03:02:11;;;;;;;38.95;17.42;;;;;;;;;;4992719;28;20046;-93
2023/10/09 03:04:38;;;;;;;37.38;17.30;;;;;;;;;;4974533;28;20039;-91
2023/10/09 03:07:07;;;;;;;38.67;16.55;;;;;;;;;;4960265;28;20169;-92
2023/10/09 03:09:34;;;;;;;;;;;;;;;;;;4944149;28;20051;-91
2023/10/09 03:12:09;;;;;;;43.50;17.35;;;;;;;;;;4965215;28;19925;-91
2023/10/09 03:14:39;;;;;;;44.80;18.08;;;;;;;;;;4987367;28;20503;-90
2023/10/09 03:17:13;;;;;;;45.38;18.65;;;;;;;;;;4957545;28;20106;-91
2023/10/09 03:19:40;;;;;;;48.15;19.33;;;;;;;;;;4971030;28;20506;-90
2023/10/09 03:22:12;;;;;;;46.30;19.13;;;;;;;;;;4975552;28;20055;-94
2023/10/09 03:24:44;;;;;;;45.22;18.63;;;;;;;;;;4977377;28;20058;-92
2023/10/09 03:27:11;;;;;;;45.15;18.98;;;;;;;;;;4976878;28;20050;-92
2023/10/09 03:29:44;;;;;;;50.85;19.95;;;;;;;;;;4961759;28;20447;-90
2023/10/09 03:32:11;;;;;;;47.28;19.15;;;;;;;;;;4977481;28;20133;-91
2023/10/09 03:34:38;;;;;;;47.65;19.65;;;;;;;;;;4961582;28;20046;-92
2023/10/09 03:37:07;;;;;;;51.60;20.75;;;;;;;;;;4961475;28;20073;-91
2023/10/09 03:39:46;;;;;;;54.25;22.20;;;;;;;;;;4977424;28;20057;-91
2023/10/09 03:42:19;;;;;;;56.70;22.42;;;;;;;;;;4976987;28;20561;-92
2023/10/09 03:44:52;;;;;;;55.53;22.30;;;;;;;;;;4942075;28;20061;-91
2023/10/09 03:47:22;;;;;;;57.78;22.38;;;;;;;;;;4958606;28;20046;-91
2023/10/09 03:49:54;;;;;;;55.20;22.15;;;;;;;;;;4970459;28;20042;-91
2023/10/09 03:52:30;;;;;;;58.17;24.02;;;;;;;;;;4977424;28;20051;-91
2023/10/09 03:55:01;;;;;;;55.10;23.73;;;;;;;;;;4975320;28;20081;-92
2023/10/09 03:57:27;;;;;;;58.78;24.88;;;;;;;;;;4958322;28;20055;-91
2023/10/09 03:59:55;;;;;;;;;;;;;;;;;;4958491;28;20050;-92
2023/10/09 04:02:31;;;;;;;53.20;22.63;;;;;;;;;;4957127;28;20032;-90
2023/10/09 04:05:00;;;;;;;57.17;24.05;;;;;;;;;;4957558;28;20121;-91
2023/10/09 04:07:28;;;;;;;59.60;23.83;;;;;;;;;;4956955;28;20090;-93
2023/10/09 04:10:26;;;;;;;58.58;24.48;;;;;;;;;;4957705;28;20507;-90
2023/10/09 04:12:41;;;;;;;57.72;23.33;;;;;;;;;;4976617;28;20530;-91
2023/10/09 04:15:14;;;;;;;66.95;25.13;;;;;;;;;;4977187;28;20050;-91
2023/10/09 04:17:43;;;;;;;53.67;23.58;;;;;;;;;;4977125;28;20121;-91
2023/10/09 04:22:50;;;;;;;61.33;24.67;;;;;;;;;;4976482;28;20082;-91
2023/10/09 04:25:28;;;;;;;57.15;23.80;;;;;;;;;;4992861;28;20042;-92
2023/10/09 04:30:53;;;;;;;58.50;24.13;;;;;;;;;;4976218;28;20080;-90
2023/10/09 04:41:28;;;;;;;60.28;26.23;;;;;;;;;;4957044;28;20476;-91
2023/10/09 04:44:18;;;;;;;64.72;25.98;;;;;;;;;;4973489;28;20134;-90
2023/10/09 04:47:17;;;;;;;62.75;25.15;;;;;;;;;;4973683;28;20046;-90
2023/10/09 04:49:45;;;;;;;61.55;24.90;;;;;;;;;;4957984;28;20054;-90
2023/10/09 04:55:15;;;;;;;60.85;26.55;;;;;;;;;;4961334;28;20070;-91
2023/10/09 05:02:56;;;;;;;65.28;26.50;;;;;;;;;;4965843;28;20065;-90
2023/10/09 05:08:21;;;;;;;70.68;28.55;;;;;;;;;;4980276;28;20046;-90
2023/10/09 05:16:13;;;;;;;76.93;28.65;;;;;;;;;;4965534;28;20140;-92
2023/10/09 05:18:45;;;;;;;66.55;27.42;;;;;;;;;;4980659;28;20061;-93
2023/10/09 05:24:19;;;;;;;69.25;27.48;;;;;;;;;;4977562;28;20051;-95
2023/10/09 05:37:17;;;;;;;74.55;28.83;;;;;;;;;;4968371;28;20054;-94
2023/10/09 06:03:45;;;;;;;66.22;28.55;;;;;;;;;;4984672;28;20042;-83
2023/10/09 06:06:18;;;;;;;70.72;28.00;;;;;;;;;;4948712;28;20050;-89
2023/10/09 06:14:03;;;;;;;62.60;28.35;;;;;;;;;;4977980;28;19925;-92
2023/10/09 06:16:41;;;;;;;63.28;26.35;;;;;;;;;;4977521;28;20046;-87
2023/10/09 06:19:26;;;;;;;68.07;27.88;;;;;;;;;;4946780;28;20046;-87
2023/10/09 06:29:35;;;;;;;61.63;27.17;;;;;;;;;;4976715;28;20089;-86
2023/10/09 06:34:56;;;;;;;56.92;25.27;;;;;;;;;;4975527;28;20047;-86
2023/10/09 06:42:33;;;;;;;55.65;23.45;;;;;;;;;;4980838;28;20043;-88
2023/10/09 06:45:21;;;;;;;54.75;25.60;;;;;;;;;;4976639;28;20108;-89
2023/10/09 06:48:07;;;;;;;51.75;22.92;;;;;;;;;;4981189;28;20069;-87
2023/10/09 06:53:20;;;;;;;49.63;21.23;;;;;;;;;;4964167;28;20051;-88
2023/10/09 06:55:50;;;;;;;42.80;19.92;;;;;;;;;;5006571;28;20038;-88
2023/10/09 06:58:23;;;;;;;40.72;19.42;;;;;;;;;;4981101;28;20050;-86
2023/10/09 07:03:32;;;;;;;40.85;19.52;;;;;;;;;;4984767;28;20053;-90
2023/10/09 07:06:09;;;;;;;40.08;19.40;;;;;;;;;;4983984;28;20054;-93
2023/10/09 07:08:38;;;;;;;38.55;18.48;;;;;;;;;;4977183;28;20058;-87
2023/10/09 07:11:57;;;;;;;34.70;16.65;;;;;;;;;;4980230;28;20057;-89
2023/10/09 07:16:58;;;;;;;36.03;15.73;;;;;;;;;;4975430;28;20046;-88
2023/10/09 07:22:03;;;;;;;42.33;16.73;;;;;;;;;;4982467;28;20047;-88
2023/10/09 07:24:43;;;;;;;43.03;16.63;;;;;;;;;;4977069;28;20046;-88
2023/10/09 07:27:14;;;;;;;34.55;16.10;;;;;;;;;;4946454;28;20488;-89
2023/10/09 07:29:49;;;;;;;36.03;15.95;;;;;;;;;;4975019;28;20060;-89
2023/10/09 07:32:21;;;;;;;30.50;14.80;;;;;;;;;;4982086;28;20065;-89
2023/10/09 07:34:53;;;;;;;33.92;14.32;;;;;;;;;;4965405;28;20050;-89
2023/10/09 07:37:35;;;;;;;30.27;13.30;;;;;;;;;;4977086;28;20096;-88
2023/10/09 07:40:07;;;;;;;31.42;13.52;;;;;;;;;;4993153;28;20050;-88
2023/10/09 07:46:29;;;;;;;30.17;13.38;;;;;;;;;;4990248;28;20046;-89
2023/10/09 07:48:05;;;;;;;28.88;12.57;;;;;;;;;;4989023;28;20057;-89
2023/10/09 07:50:40;;;;;;;31.52;12.70;;;;;;;;;;4956204;28;20050;-90
2023/10/09 07:53:26;;;;;;;29.70;12.18;;;;;;;;;;4976666;28;20038;-90
2023/10/09 07:56:06;;;;;;;28.25;11.93;;;;;;;;;;4987866;28;20173;-90
2023/10/09 07:58:33;;;;;;;25.98;11.02;;;;;;;;;;4977252;28;20090;-90
2023/10/09 08:01:15;;;;;;;27.60;12.07;;;;;;;;;;4993211;28;20058;-91
2023/10/09 08:03:45;;;;;;;24.13;11.73;;;;;;;;;;4968275;28;20104;-91
2023/10/09 08:16:46;;;;;;;25.83;10.93;;;;;;;;;;4971775;28;20053;-92
2023/10/09 08:24:42;;;;;;;29.38;11.40;;;;;;;;;;4975623;28;20081;-89
2023/10/09 08:30:28;;;;;;;25.48;10.80;;;;;;;;;;4980238;28;20447;-91
2023/10/09 08:32:42;;;;;;;31.15;11.80;;;;;;;;;;4969403;28;20450;-94
2023/10/09 08:38:10;;;;;;;28.05;11.38;;;;;;;;;;4953738;28;20105;-87
2023/10/09 08:40:38;;;;;;;30.45;11.43;;;;;;;;;;4973582;28;20046;-86
2023/10/09 08:43:17;;;;;;;26.25;10.90;;;;;;;;;;4972045;28;20948;-93
2023/10/09 08:45:47;;;;;;;31.60;12.05;;;;;;;;;;4979569;28;20057;-86
2023/10/09 08:48:17;;;;;;;24.33;11.05;;;;;;;;;;4966430;28;20483;-89
2023/10/09 08:50:44;;;;;;;28.35;11.65;;;;;;;;;;4984363;28;20055;-91
2023/10/09 08:53:10;;;;;;;29.05;11.10;;;;;;;;;;4965715;28;20081;-93
2023/10/09 08:55:38;;;;;;;36.30;11.55;;;;;;;;;;4983033;28;20046;-94
2023/10/09 09:00:50;;;;;;;24.38;10.07;;;;;;;;;;4968854;28;20046;-90
2023/10/09 09:03:16;;;;;;;25.75;10.07;;;;;;;;;;4967592;28;20039;-90
2023/10/09 09:05:47;;;;;;;25.38;9.60;;;;;;;;;;4983027;28;20046;-93
2023/10/09 09:08:28;;;;;;;26.60;10.70;;;;;;;;;;5002103;28;20557;-92
2023/10/09 09:11:22;;;;;;;34.05;11.13;;;;;;;;;;4965498;28;20055;-91
2023/10/09 09:14:06;;;;;;;26.35;10.35;;;;;;;;;;4971772;28;20046;-89
2023/10/09 09:16:36;;;;;;;28.05;10.43;;;;;;;;;;4988058;28;20050;-84
2023/10/09 09:19:04;;;;;;;30.45;11.30;;;;;;;;;;4943284;28;20058;-87
2023/10/09 09:21:37;;;;;;;24.95;10.63;;;;;;;;;;4983700;28;20499;-90
2023/10/09 09:24:15;;;;;;;32.95;11.82;;;;;;;;;;4975128;28;20054;-90
2023/10/09 09:26:46;;;;;;;24.17;11.73;;;;;;;;;;4977895;28;20042;-91
2023/10/09 09:29:19;;;;;;;27.42;11.20;;;;;;;;;;4974824;28;20125;-90
2023/10/09 09:31:57;;;;;;;31.40;11.35;;;;;;;;;;4976885;28;20050;-89
2023/10/09 09:34:29;;;;;;;24.08;10.68;;;;;;;;;;4994488;28;20046;-92
2023/10/09 09:36:58;;;;;;;33.85;11.40;;;;;;;;;;4977958;28;20046;-89
2023/10/09 09:39:28;;;;;;;38.20;10.38;;;;;;;;;;4977757;28;20054;-86
2023/10/09 09:42:07;;;;;;;36.75;11.57;;;;;;;;;;4994020;28;20039;-89
2023/10/09 09:44:43;;;;;;;33.40;12.77;;;;;;;;;;4976394;28;20051;-90
2023/10/09 09:47:12;;;;;;;40.65;13.82;;;;;;;;;;4959132;28;20047;-88
2023/10/09 09:49:39;;;;;;;33.03;12.63;;;;;;;;;;4959366;28;20396;-90
2023/10/09 09:52:09;;;;;;;33.00;12.20;;;;;;;;;;4959155;28;20043;-90
2023/10/09 09:54:39;;;;;;;29.90;12.85;;;;;;;;;;4960675;28;20093;-90
2023/10/09 09:57:12;;;;;;;36.30;13.30;;;;;;;;;;4967262;28;20073;-91
2023/10/09 09:59:52;;;;;;;32.10;12.95;;;;;;;;;;4977326;28;20053;-85
2023/10/09 10:02:33;;;;;;;35.80;13.75;;;;;;;;;;4956619;28;20050;-86
2023/10/09 10:05:03;;;;;;;30.98;12.75;;;;;;;;;;4975807;28;20053;-86
2023/10/09 10:07:31;;;;;;;35.08;13.10;;;;;;;;;;4962933;28;20050;-84
2023/10/09 10:09:57;;;;;;;33.45;13.38;;;;;;;;;;4994278;28;20057;-91
2023/10/09 10:12:42;;;;;;;37.55;13.68;;;;;;;;;;4977747;28;20052;-87
2023/10/09 10:15:08;;;;;;;26.23;13.02;;;;;;;;;;4968453;28;20070;-92
2023/10/09 10:17:36;;;;;;;;;;;;;;;;;;4959193;28;20050;-92
2023/10/09 10:22:47;;;;;;;35.35;13.65;;;;;;;;;;4958149;28;20047;-90
2023/10/09 10:26:13;;;;;;;32.50;13.63;;;;;;;;;;4959953;28;20062;-89
2023/10/09 10:28:28;;;;;;;33.85;13.73;;;;;;;;;;4980603;28;20189;-90
2023/10/09 10:30:55;;;;;;;37.88;13.52;;;;;;;;;;4986917;28;20051;-86
2023/10/09 10:33:26;;;;;;;35.20;12.25;;;;;;;;;;4938927;29;20057;-87
2023/10/09 10:35:52;;;;;;;32.17;12.57;;;;;;;;;;4987727;28;20068;-88
2023/10/09 10:38:26;;;;;;;30.13;12.13;;;;;;;;;;4986733;28;20044;-86
2023/10/09 10:41:00;;;;;;;33.72;11.82;;;;;;;;;;4971727;28;20513;-90
2023/10/09 10:43:34;;;;;;;28.55;11.48;;;;;;;;;;4951550;28;20050;-82
2023/10/09 10:49:15;;;;;;;24.55;10.35;;;;;;;;;;4930196;28;20110;-89
2023/10/09 10:51:47;;;;;;;27.98;10.65;;;;;;;;;;4980498;28;20050;-88
2023/10/09 10:54:29;;;;;;;29.58;10.98;;;;;;;;;;4986637;28;20059;-89
2023/10/09 10:57:00;;;;;;;27.25;11.18;;;;;;;;;;4981343;28;20046;-90
2023/10/09 10:59:41;;;;;;;37.95;9.82;;;;;;;;;;4974174;28;20055;-89
2023/10/09 11:04:45;;;;;;;28.80;10.60;;;;;;;;;;4969471;28;20050;-90
2023/10/09 11:07:29;;;;;;;23.33;10.07;;;;;;;;;;4946414;28;20057;-92
2023/10/09 11:15:57;;;;;;;21.70;8.77;;;;;;;;;;4974636;28;20047;-92
2023/10/09 11:18:27;;;;;;;22.73;8.68;;;;;;;;;;4971457;28;20054;-91
2023/10/09 11:23:39;;;;;;;21.95;8.95;;;;;;;;;;4968962;28;20042;-91
2023/10/09 11:26:21;;;;;;;20.30;7.88;;;;;;;;;;4967757;28;20524;-86
2023/10/09 11:28:57;;;;;;;27.88;8.18;;;;;;;;;;4971527;28;20078;-88
2023/10/09 11:31:23;;;;;;;27.45;8.23;;;;;;;;;;4971370;28;20082;-81
2023/10/09 11:33:53;;;;;;;23.17;7.60;;;;;;;;;;4969565;28;20082;-83
2023/10/09 11:36:31;;;;;;;19.40;8.30;;;;;;;;;;4971009;28;20403;-83
2023/10/09 11:39:13;;;;;;;20.55;8.13;;;;;;;;;;4964428;28;20105;-81
2023/10/09 11:41:44;;;;;;;23.80;8.63;;;;;;;;;;4960436;28;20126;-89
2023/10/09 11:44:24;;;;;;;20.55;8.48;;;;;;;;;;4965086;28;20479;-84
2023/10/09 11:47:14;;;;;;;24.25;7.43;;;;;;;;;;4962856;28;20479;-80
2023/10/09 11:50:11;;;;;;;23.58;8.13;;;;;;;;;;4937560;28;20055;-82
2023/10/09 11:52:56;;;;;;;18.27;7.13;;;;;;;;;;4972612;28;20061;-83
2023/10/09 11:55:25;;;;;;;20.33;7.47;;;;;;;;;;4959392;28;20057;-83
2023/10/09 11:57:51;;;;;;;16.90;7.18;;;;;;;;;;4940953;28;20065;-84
2023/10/09 12:00:29;;;;;;;17.75;6.40;;;;;;;;;;4956230;28;20054;-82
2023/10/09 12:02:56;;;;;;;17.88;6.38;;;;;;;;;;4956373;28;20122;-82
2023/10/09 12:05:23;;;;;;;15.25;6.25;;;;;;;;;;4960014;28;20050;-84
2023/10/09 12:07:54;;;;;;;13.68;5.70;;;;;;;;;;4975994;28;20073;-80
2023/10/09 12:10:25;;;;;;;14.45;5.80;;;;;;;;;;4975991;28;20054;-82
2023/10/09 12:12:57;;;;;;;16.05;5.60;;;;;;;;;;4963977;28;20051;-85
2023/10/09 12:15:24;;;;;;;16.50;5.90;;;;;;;;;;4959991;28;20058;-83
2023/10/09 12:17:53;;;;;;;13.48;5.10;;;;;;;;;;4960839;28;20047;-82
2023/10/09 12:20:31;;;;;;;13.88;5.40;;;;;;;;;;4969300;28;20130;-85
2023/10/09 12:23:04;;;;;;;12.23;5.18;;;;;;;;;;4943016;28;20130;-83
2023/10/09 12:25:31;;;;;;;14.57;5.60;;;;;;;;;;4968663;28;20098;-83
2023/10/09 12:28:01;;;;;;;13.43;5.05;;;;;;;;;;4972206;28;20500;-87
2023/10/09 12:30:31;;;;;;;18.05;5.30;;;;;;;;;;4959336;28;20051;-86
2023/10/09 12:32:57;;;;;;;14.10;5.65;;;;;;;;;;4970590;28;20049;-82
2023/10/09 12:35:33;;;;;;;15.60;4.60;;;;;;;;;;4944256;28;20657;-81
2023/10/09 12:38:00;;;;;;;11.50;4.30;;;;;;;;;;4955980;28;20554;-81
2023/10/09 12:40:30;;;;;;;13.30;4.40;;;;;;;;;;4974112;28;20093;-80
2023/10/09 12:43:00;;;;;;;13.50;3.97;;;;;;;;;;4975031;28;20054;-82
2023/10/09 12:45:32;;;;;;;13.95;4.70;;;;;;;;;;4975970;28;20047;-84
2023/10/09 12:47:59;;;;;;;12.95;5.15;;;;;;;;;;4975338;28;20093;-85
2023/10/09 12:50:28;;;;;;;9.95;4.32;;;;;;;;;;4974955;28;20077;-84
2023/10/09 12:53:02;;;;;;;15.18;4.80;;;;;;;;;;4974165;28;20054;-85
2023/10/09 12:55:34;;;;;;;10.93;4.13;;;;;;;;;;4975062;28;20053;-85
2023/10/09 12:58:06;;;;;;;11.73;4.00;;;;;;;;;;4975704;28;20047;-84
2023/10/09 13:00:32;;;;;;;13.32;4.15;;;;;;;;;;4974808;28;20055;-84
2023/10/09 13:03:01;;;;;;;10.43;4.57;;;;;;;;;;4954759;28;20064;-84
2023/10/09 13:05:27;;;;;;;12.15;4.25;;;;;;;;;;4974112;28;20117;-83
2023/10/09 13:07:56;;;;;;;12.98;4.63;;;;;;;;;;4965464;28;20051;-84
2023/10/09 13:10:23;;;;;;;14.73;3.95;;;;;;;;;;4969740;28;20050;-83
2023/10/09 13:12:55;;;;;;;14.00;4.40;;;;;;;;;;4974108;28;20050;-83
2023/10/09 13:15:21;;;;;;;13.57;4.90;;;;;;;;;;4948480;28;20050;-85
2023/10/09 13:17:47;;;;;;;15.85;4.60;;;;;;;;;;4970740;28;20058;-81
2023/10/09 13:20:13;;;;;;;15.38;4.40;;;;;;;;;;4955515;29;20143;-84
2023/10/09 13:22:41;;;;;;;16.80;4.53;;;;;;;;;;4964677;28;20049;-83
2023/10/09 13:25:14;;;;;;;14.18;4.22;;;;;;;;;;4972017;28;20101;-83
2023/10/09 13:27:40;;;;;;;11.27;4.30;;;;;;;;;;4971093;28;20063;-82
2023/10/09 13:30:08;;;;;;;15.18;4.47;;;;;;;;;;4979656;28;20396;-83
2023/10/09 13:32:35;;;;;;;17.85;4.70;;;;;;;;;;4945160;28;20065;-84
2023/10/09 13:35:05;;;;;;;12.65;4.43;;;;;;;;;;4975855;28;20042;-83
2023/10/09 13:37:36;;;;;;;14.88;4.13;;;;;;;;;;4985652;28;20054;-89
2023/10/09 13:40:09;;;;;;;11.85;3.83;;;;;;;;;;4968392;28;20066;-84
2023/10/09 13:42:35;;;;;;;9.48;3.67;;;;;;;;;;4961955;28;20038;-83
2023/10/09 13:45:15;;;;;;;12.40;3.63;;;;;;;;;;4978362;28;20050;-83
2023/10/09 13:47:44;;;;;;;13.85;3.75;;;;;;;;;;4976900;28;20526;-85
2023/10/09 13:50:10;;;;;;;10.95;3.20;;;;;;;;;;4972542;28;20054;-83
2023/10/09 13:52:39;;;;;;;10.77;3.00;;;;;;;;;;4958788;28;20089;-87
2023/10/09 13:55:15;;;;;;;7.90;2.92;;;;;;;;;;4935587;28;20393;-81
2023/10/09 13:57:43;;;;;;;9.95;2.90;;;;;;;;;;4990916;28;20042;-81
2023/10/09 14:00:10;;;;;;;9.35;2.58;;;;;;;;;;4976732;28;20125;-83
2023/10/09 14:02:37;;;;;;;9.35;3.25;;;;;;;;;;4975927;28;20050;-83
2023/10/09 14:05:04;;;;;;;13.70;3.20;;;;;;;;;;4956616;28;20054;-83
2023/10/09 14:07:30;;;;;;;10.38;2.75;;;;;;;;;;4957114;28;20054;-88
2023/10/09 14:10:06;;;;;;;10.20;2.85;;;;;;;;;;4985061;28;20088;-89
2023/10/09 14:12:34;;;;;;;13.27;3.10;;;;;;;;;;4948641;28;20050;-91
2023/10/09 14:15:03;;;;;;;12.07;3.17;;;;;;;;;;4993633;28;20050;-84
2023/10/09 14:17:29;;;;;;;8.50;2.60;;;;;;;;;;4977112;28;20052;-91
2023/10/09 14:20:25;;;;;;;9.35;2.97;;;;;;;;;;4937077;28;20064;-92
2023/10/09 14:22:42;;;;;;;;;;;;;;;;;;4957379;28;20081;-92
2023/10/09 14:25:15;;;;;;;10.77;2.95;;;;;;;;;;4978351;28;19921;-93
2023/10/09 14:27:41;;;;;;;10.80;3.08;;;;;;;;;;4964895;28;20085;-91
2023/10/09 14:30:12;;;;;;;8.50;2.90;;;;;;;;;;4959495;28;20074;-90
2023/10/09 14:32:51;;;;;;;10.85;3.20;;;;;;;;;;4970036;28;20054;-92
2023/10/09 14:35:21;;;;;;;10.60;3.08;;;;;;;;;;4947689;28;20116;-92
2023/10/09 14:37:51;;;;;;;10.90;3.13;;;;;;;;;;4994079;28;20054;-92
2023/10/09 14:40:20;;;;;;;12.30;3.25;;;;;;;;;;4968606;28;20053;-92
2023/10/09 14:42:47;;;;;;;10.60;3.08;;;;;;;;;;4966950;28;20074;-92
2023/10/09 14:45:16;;;;;;;8.52;2.75;;;;;;;;;;4981557;28;20058;-90
2023/10/09 14:47:42;;;;;;;8.35;3.03;;;;;;;;;;4974274;28;20484;-91
2023/10/09 14:50:13;;;;;;;10.45;3.42;;;;;;;;;;4975118;28;20063;-90
2023/10/09 14:52:42;;;;;;;12.93;3.13;;;;;;;;;;4983313;28;20073;-89
2023/10/09 14:55:20;;;;;;;10.35;3.35;;;;;;;;;;4958630;28;20773;-91
2023/10/09 14:57:50;;;;;;;10.48;3.25;;;;;;;;;;4967535;28;20130;-91
2023/10/09 15:00:22;;;;;;;14.40;3.00;;;;;;;;;;4975207;28;20046;-88
2023/10/09 15:02:58;;;;;;;14.68;3.45;;;;;;;;;;4969881;28;20433;-88
2023/10/09 15:05:29;;;;;;;12.30;3.50;;;;;;;;;;4971571;28;20100;-89
2023/10/09 15:08:10;;;;;;;14.10;3.33;;;;;;;;;;4979421;28;20049;-92
2023/10/09 15:10:44;;;;;;;11.32;3.25;;;;;;;;;;4945263;28;20050;-94
2023/10/09 15:13:13;;;;;;;11.60;3.20;;;;;;;;;;4977497;28;20069;-91
2023/10/09 15:15:48;;;;;;;9.00;2.75;;;;;;;;;;4957977;28;20051;-94
2023/10/09 15:18:18;;;;;;;15.60;3.38;;;;;;;;;;4967417;28;20066;-93
2023/10/09 15:20:51;;;;;;;13.18;3.25;;;;;;;;;;4972446;28;20052;-95
2023/10/09 15:23:20;;;;;;;12.68;3.40;;;;;;;;;;4969070;28;20038;-95
2023/10/09 15:25:51;;;;;;;11.90;3.50;;;;;;;;;;4986034;28;20050;-93
2023/10/09 15:28:20;;;;;;;13.75;3.70;;;;;;;;;;4959631;28;20560;-92
2023/10/09 15:30:47;;;;;;;14.30;3.15;;;;;;;;;;4959019;28;20055;-92
2023/10/09 15:33:16;;;;;;;11.68;2.67;;;;;;;;;;4985556;28;20121;-93
2023/10/09 15:36:07;;;;;;;9.88;2.97;;;;;;;;;;4967740;28;20050;-93
2023/10/09 15:38:33;;;;;;;9.88;3.28;;;;;;;;;;4986011;28;20050;-92
2023/10/09 15:41:00;;;;;;;13.63;3.88;;;;;;;;;;4967645;28;20058;-88
2023/10/09 15:43:26;;;;;;;8.57;2.90;;;;;;;;;;4952404;28;20086;-89
2023/10/09 15:45:52;;;;;;;11.05;2.90;;;;;;;;;;4969460;28;20051;-91
2023/10/09 15:48:21;;;;;;;10.38;3.05;;;;;;;;;;4968734;28;20038;-92
2023/10/09 15:50:48;;;;;;;8.75;3.33;;;;;;;;;;4945297;28;20050;-92
2023/10/09 15:53:17;;;;;;;12.40;3.15;;;;;;;;;;4976546;28;20046;-92
2023/10/09 15:55:43;;;;;;;;;;;;;;;;;;5004992;28;20073;-83
2023/10/09 15:58:09;;;;;;;16.77;3.10;;;;;;;;;;4976428;28;20348;-77
2023/10/09 16:00:35;;;;;;;;;;;;;;;;;;4992752;28;20073;-85
2023/10/09 16:03:03;;;;;;;10.80;3.15;;;;;;;;;;4973145;28;20224;-86
2023/10/09 16:05:30;;;;;;;18.25;3.05;;;;;;;;;;4959923;28;20062;-84
2023/10/09 16:07:57;;;;;;;12.02;3.30;;;;;;;;;;4991734;28;20049;-83
2023/10/09 16:10:25;;;;;;;9.15;3.00;;;;;;;;;;4989788;28;20090;-85
2023/10/09 16:12:53;;;;;;;10.25;3.53;;;;;;;;;;4990100;28;20050;-82
2023/10/09 16:15:20;;;;;;;11.35;2.97;;;;;;;;;;4943194;28;20046;-82
2023/10/09 16:17:58;;;;;;;11.02;3.00;;;;;;;;;;4951400;28;20042;-82
2023/10/09 16:20:25;;;;;;;13.00;3.28;;;;;;;;;;4977747;28;20117;-82
2023/10/09 16:22:52;;;;;;;6.75;2.88;;;;;;;;;;4990217;28;20507;-82
2023/10/09 16:25:21;;;;;;;10.30;3.17;;;;;;;;;;4956113;28;20547;-82
2023/10/09 16:27:47;;;;;;;9.85;3.08;;;;;;;;;;4986139;28;20063;-84
2023/10/09 16:30:18;;;;;;;8.43;2.45;;;;;;;;;;4959397;28;20137;-84
2023/10/09 16:32:53;;;;;;;7.75;2.58;;;;;;;;;;4973229;28;20054;-84
2023/10/09 16:35:22;;;;;;;8.05;2.40;;;;;;;;;;4985274;28;20061;-82
2023/10/09 16:37:49;;;;;;;8.07;2.58;;;;;;;;;;4973220;28;20054;-86
2023/10/09 16:40:20;;;;;;;7.88;2.58;;;;;;;;;;4974695;28;20059;-85
2023/10/09 16:42:46;;;;;;;9.70;2.47;;;;;;;;;;4943449;28;20049;-87
2023/10/09 16:45:15;;;;;;;7.57;2.50;;;;;;;;;;4977006;28;20523;-83
2023/10/09 16:47:44;;;;;;;8.05;2.67;;;;;;;;;;4966721;28;20136;-79
2023/10/09 16:50:11;;;;;;;8.10;2.38;;;;;;;;;;4968093;28;20050;-77
2023/10/09 16:52:38;;;;;;;6.72;2.50;;;;;;;;;;4969377;28;20043;-78
2023/10/09 16:55:08;;;;;;;15.65;2.40;;;;;;;;;;4999214;28;20116;-77
2023/10/09 16:57:35;;;;;;;9.20;2.20;;;;;;;;;;4993720;28;20184;-76
2023/10/09 17:00:01;;;;;;;6.90;2.30;;;;;;;;;;4977721;28;20054;-78
2023/10/09 17:02:27;;;;;;;7.20;2.22;;;;;;;;;;4972494;28;20056;-77
2023/10/09 17:04:54;;;;;;;11.18;2.17;;;;;;;;;;4971780;28;20073;-78
2023/10/09 17:07:24;;;;;;;8.40;2.30;;;;;;;;;;5006304;28;20054;-79
2023/10/09 17:09:50;;;;;;;7.82;2.35;;;;;;;;;;4961804;28;20050;-77
2023/10/09 17:12:17;;;;;;;5.55;1.80;;;;;;;;;;4972701;28;20049;-79
2023/10/09 17:14:43;;;;;;;7.78;2.47;;;;;;;;;;4966195;28;20059;-77
2023/10/09 17:17:09;;;;;;;5.00;2.10;;;;;;;;;;4950145;28;21004;-78
2023/10/09 17:19:37;;;;;;;;;;;;;;;;;;4956859;28;20054;-79
2023/10/09 17:22:10;;;;;;;6.28;2.00;;;;;;;;;;4975747;28;19925;-77
2023/10/09 17:24:39;;;;;;;9.38;2.30;;;;;;;;;;5000399;28;20105;-78
2023/10/09 17:27:08;;;;;;;6.57;2.38;;;;;;;;;;4966222;28;20046;-78
2023/10/09 17:29:37;;;;;;;7.88;2.15;;;;;;;;;;4976673;28;20062;-78
2023/10/09 17:32:04;;;;;;;6.38;2.28;;;;;;;;;;4937551;28;20265;-77
2023/10/09 17:34:33;;;;;;;5.82;2.20;;;;;;;;;;4949989;28;20043;-77
2023/10/09 17:36:59;;;;;;;7.25;2.13;;;;;;;;;;4958953;28;20055;-78
2023/10/09 17:39:26;;;;;;;;;;;;;;;;;;4936901;28;20166;-78
2023/10/09 17:41:56;;;;;;;7.03;2.15;;;;;;;;;;4951728;28;19922;-80
2023/10/09 17:44:22;;;;;;;6.60;2.10;;;;;;;;;;4953320;28;20058;-77